sensor_id;sensor_type;location;lat;lon;timestamp;temperature;humidity
23744;DHT22;12052;53.478;10.182;2024-02-23T00:01:40;9.80;99.90
23744;DHT22;12052;53.478;10.182;2024-02-23T00:04:05;9.80;99.90
23744;DHT22;12052;53.478;10.182;2024-02-23T00:06:34;9.70;99.90
23744;DHT22;12052;53.478;10.182;2024-02-23T00:08:59;9.70;99.90
23744;DHT22;12052;53.478;10.182;2024-02-23T00:11:25;9.70;99.90
23744;DHT22;12052;53.478;10.182;2024-02-23T00:13:50;9.60;99.90
23744;DHT22;12052;53.478;10.182;2024-02-23T00:16:16;9.60;99.90
23744;DHT22;12052;53.478;10.182;2024-02-23T00:18:42;9.50;99.90
23744;DHT22;12052;53.478;10.182;2024-02-23T00:21:07;9.40;99.90
23744;DHT22;12052;53.478;10.182;2024-02-23T00:23:34;9.30;99.90
23744;DHT22;12052;53.478;10.182;2024-02-23T00:25:59;9.20;99.90
23744;DHT22;12052;53.478;10.182;2024-02-23T00:28:25;9.20;99.90
23744;DHT22;12052;53.478;10.182;2024-02-23T00:30:50;9.20;99.90
23744;DHT22;12052;53.478;10.182;2024-02-23T00:33:16;9.10;99.90
23744;DHT22;12052;53.478;10.182;2024-02-23T00:35:41;9.10;99.90
23744;DHT22;12052;53.478;10.182;2024-02-23T00:38:07;9.10;99.90
23744;DHT22;12052;53.478;10.182;2024-02-23T00:40:33;9.10;99.90
23744;DHT22;12052;53.478;10.182;2024-02-23T00:42:59;9.10;99.90
23744;DHT22;12052;53.478;10.182;2024-02-23T00:45:25;9.20;99.90
23744;DHT22;12052;53.478;10.182;2024-02-23T00:47:51;9.10;99.90
23744;DHT22;12052;53.478;10.182;2024-02-23T00:50:17;9.10;99.90
23744;DHT22;12052;53.478;10.182;2024-02-23T00:52:42;9.00;99.90
23744;DHT22;12052;53.478;10.182;2024-02-23T00:55:08;9.00;99.90
23744;DHT22;12052;53.478;10.182;2024-02-23T00:57:38;9.00;99.90
23744;DHT22;12052;53.478;10.182;2024-02-23T01:00:04;8.90;99.90
23744;DHT22;12052;53.478;10.182;2024-02-23T01:02:31;8.90;99.90
23744;DHT22;12052;53.478;10.182;2024-02-23T01:04:58;8.80;99.90
23744;DHT22;12052;53.478;10.182;2024-02-23T01:07:24;8.80;99.90
23744;DHT22;12052;53.478;10.182;2024-02-23T01:09:50;8.70;99.90
23744;DHT22;12052;53.478;10.182;2024-02-23T01:12:16;8.60;99.90
23744;DHT22;12052;53.478;10.182;2024-02-23T01:14:42;8.40;99.90
23744;DHT22;12052;53.478;10.182;2024-02-23T01:17:07;7.70;99.90
23744;DHT22;12052;53.478;10.182;2024-02-23T01:19:33;7.10;99.90
23744;DHT22;12052;53.478;10.182;2024-02-23T01:21:59;6.80;99.90
23744;DHT22;12052;53.478;10.182;2024-02-23T01:24:26;6.60;99.90
23744;DHT22;12052;53.478;10.182;2024-02-23T01:26:53;6.50;99.90
23744;DHT22;12052;53.478;10.182;2024-02-23T01:29:20;6.40;99.90
23744;DHT22;12052;53.478;10.182;2024-02-23T01:31:46;6.40;99.90
23744;DHT22;12052;53.478;10.182;2024-02-23T01:34:11;6.40;99.90
23744;DHT22;12052;53.478;10.182;2024-02-23T01:36:37;6.40;99.90
23744;DHT22;12052;53.478;10.182;2024-02-23T01:39:04;6.40;99.90
23744;DHT22;12052;53.478;10.182;2024-02-23T01:41:30;6.40;99.90
23744;DHT22;12052;53.478;10.182;2024-02-23T01:43:55;6.40;99.90
23744;DHT22;12052;53.478;10.182;2024-02-23T01:46:21;6.40;99.90
23744;DHT22;12052;53.478;10.182;2024-02-23T01:48:47;6.50;99.90
23744;DHT22;12052;53.478;10.182;2024-02-23T01:51:13;6.50;99.90
23744;DHT22;12052;53.478;10.182;2024-02-23T01:53:39;6.40;99.90
23744;DHT22;12052;53.478;10.182;2024-02-23T01:56:05;6.40;99.90
23744;DHT22;12052;53.478;10.182;2024-02-23T01:58:31;6.40;99.90
23744;DHT22;12052;53.478;10.182;2024-02-23T02:00:58;6.40;99.90
23744;DHT22;12052;53.478;10.182;2024-02-23T02:03:24;6.40;99.90
23744;DHT22;12052;53.478;10.182;2024-02-23T02:05:50;6.40;99.90
23744;DHT22;12052;53.478;10.182;2024-02-23T02:08:17;6.40;99.90
23744;DHT22;12052;53.478;10.182;2024-02-23T02:10:42;6.40;99.90
23744;DHT22;12052;53.478;10.182;2024-02-23T02:13:09;6.50;99.90
23744;DHT22;12052;53.478;10.182;2024-02-23T02:15:35;6.50;99.90
23744;DHT22;12052;53.478;10.182;2024-02-23T02:18:01;6.40;99.90
23744;DHT22;12052;53.478;10.182;2024-02-23T02:20:27;6.50;99.90
23744;DHT22;12052;53.478;10.182;2024-02-23T02:22:54;6.50;99.90
23744;DHT22;12052;53.478;10.182;2024-02-23T02:25:20;6.50;99.90
23744;DHT22;12052;53.478;10.182;2024-02-23T02:27:45;6.50;99.90
23744;DHT22;12052;53.478;10.182;2024-02-23T02:30:12;6.50;99.90
23744;DHT22;12052;53.478;10.182;2024-02-23T02:32:38;6.50;99.90
23744;DHT22;12052;53.478;10.182;2024-02-23T02:35:04;6.50;99.90
23744;DHT22;12052;53.478;10.182;2024-02-23T02:37:29;6.50;99.90
23744;DHT22;12052;53.478;10.182;2024-02-23T02:39:55;6.50;99.90
23744;DHT22;12052;53.478;10.182;2024-02-23T02:42:21;6.40;99.90
23744;DHT22;12052;53.478;10.182;2024-02-23T02:44:46;6.40;99.90
23744;DHT22;12052;53.478;10.182;2024-02-23T02:47:12;6.30;99.90
23744;DHT22;12052;53.478;10.182;2024-02-23T02:49:39;6.20;99.90
23744;DHT22;12052;53.478;10.182;2024-02-23T02:52:05;6.20;99.90
23744;DHT22;12052;53.478;10.182;2024-02-23T02:54:31;6.20;99.90
23744;DHT22;12052;53.478;10.182;2024-02-23T02:56:57;6.10;99.90
23744;DHT22;12052;53.478;10.182;2024-02-23T02:59:23;6.10;99.90
23744;DHT22;12052;53.478;10.182;2024-02-23T03:01:49;6.10;99.90
23744;DHT22;12052;53.478;10.182;2024-02-23T03:04:15;6.00;99.90
23744;DHT22;12052;53.478;10.182;2024-02-23T03:06:40;6.00;99.90
23744;DHT22;12052;53.478;10.182;2024-02-23T03:09:06;6.00;99.90
23744;DHT22;12052;53.478;10.182;2024-02-23T03:11:32;6.00;99.90
23744;DHT22;12052;53.478;10.182;2024-02-23T03:13:58;5.90;99.90
23744;DHT22;12052;53.478;10.182;2024-02-23T03:16:24;5.90;99.90
23744;DHT22;12052;53.478;10.182;2024-02-23T03:18:51;5.90;99.90
23744;DHT22;12052;53.478;10.182;2024-02-23T03:21:19;5.80;99.90
23744;DHT22;12052;53.478;10.182;2024-02-23T03:23:45;5.70;99.90
23744;DHT22;12052;53.478;10.182;2024-02-23T03:26:10;5.70;99.90
23744;DHT22;12052;53.478;10.182;2024-02-23T03:28:36;5.70;99.90
23744;DHT22;12052;53.478;10.182;2024-02-23T03:31:02;5.70;99.90
23744;DHT22;12052;53.478;10.182;2024-02-23T03:33:27;5.70;99.90
23744;DHT22;12052;53.478;10.182;2024-02-23T03:35:53;5.70;99.90
23744;DHT22;12052;53.478;10.182;2024-02-23T03:38:18;5.70;99.90
23744;DHT22;12052;53.478;10.182;2024-02-23T03:40:44;5.70;99.90
23744;DHT22;12052;53.478;10.182;2024-02-23T03:43:10;5.60;99.90
23744;DHT22;12052;53.478;10.182;2024-02-23T03:45:36;5.60;99.90
23744;DHT22;12052;53.478;10.182;2024-02-23T03:48:03;5.60;99.90
23744;DHT22;12052;53.478;10.182;2024-02-23T03:50:30;5.60;99.90
23744;DHT22;12052;53.478;10.182;2024-02-23T03:52:55;5.50;99.90
23744;DHT22;12052;53.478;10.182;2024-02-23T03:55:21;5.50;99.90
23744;DHT22;12052;53.478;10.182;2024-02-23T03:57:47;5.50;99.90
23744;DHT22;12052;53.478;10.182;2024-02-23T04:00:13;5.40;99.90
23744;DHT22;12052;53.478;10.182;2024-02-23T04:02:39;5.40;99.90
23744;DHT22;12052;53.478;10.182;2024-02-23T04:05:05;5.30;99.90
23744;DHT22;12052;53.478;10.182;2024-02-23T04:07:31;5.30;99.90
23744;DHT22;12052;53.478;10.182;2024-02-23T04:09:57;5.30;99.90
23744;DHT22;12052;53.478;10.182;2024-02-23T04:12:22;5.20;99.90
23744;DHT22;12052;53.478;10.182;2024-02-23T04:14:48;5.20;99.90
23744;DHT22;12052;53.478;10.182;2024-02-23T04:17:14;5.20;99.90
23744;DHT22;12052;53.478;10.182;2024-02-23T04:19:40;5.20;99.90
23744;DHT22;12052;53.478;10.182;2024-02-23T04:22:07;5.20;99.90
23744;DHT22;12052;53.478;10.182;2024-02-23T04:24:39;5.10;99.90
23744;DHT22;12052;53.478;10.182;2024-02-23T04:27:06;5.20;99.90
23744;DHT22;12052;53.478;10.182;2024-02-23T04:29:32;5.20;99.90
23744;DHT22;12052;53.478;10.182;2024-02-23T04:31:59;5.20;99.90
23744;DHT22;12052;53.478;10.182;2024-02-23T04:34:25;5.20;99.90
23744;DHT22;12052;53.478;10.182;2024-02-23T04:36:50;5.20;99.90
23744;DHT22;12052;53.478;10.182;2024-02-23T04:39:16;5.20;99.90
23744;DHT22;12052;53.478;10.182;2024-02-23T04:41:41;5.20;99.90
23744;DHT22;12052;53.478;10.182;2024-02-23T04:44:07;5.30;99.90
23744;DHT22;12052;53.478;10.182;2024-02-23T04:46:33;5.30;99.90
23744;DHT22;12052;53.478;10.182;2024-02-23T04:49:00;5.40;99.90
23744;DHT22;12052;53.478;10.182;2024-02-23T04:51:25;5.40;99.90
23744;DHT22;12052;53.478;10.182;2024-02-23T04:53:51;5.40;99.90
23744;DHT22;12052;53.478;10.182;2024-02-23T04:56:17;5.40;99.90
23744;DHT22;12052;53.478;10.182;2024-02-23T04:58:43;5.40;99.90
23744;DHT22;12052;53.478;10.182;2024-02-23T05:01:09;5.40;99.90
23744;DHT22;12052;53.478;10.182;2024-02-23T05:03:36;5.40;99.90
23744;DHT22;12052;53.478;10.182;2024-02-23T05:06:02;5.40;99.90
23744;DHT22;12052;53.478;10.182;2024-02-23T05:08:28;5.40;99.90
23744;DHT22;12052;53.478;10.182;2024-02-23T05:10:56;5.40;99.90
23744;DHT22;12052;53.478;10.182;2024-02-23T05:13:21;5.40;99.90
23744;DHT22;12052;53.478;10.182;2024-02-23T05:15:47;5.40;99.90
23744;DHT22;12052;53.478;10.182;2024-02-23T05:18:13;5.40;99.90
23744;DHT22;12052;53.478;10.182;2024-02-23T05:20:38;5.40;99.90
23744;DHT22;12052;53.478;10.182;2024-02-23T05:23:04;5.30;99.90
23744;DHT22;12052;53.478;10.182;2024-02-23T05:25:29;5.30;99.90
23744;DHT22;12052;53.478;10.182;2024-02-23T05:27:55;5.30;99.90
23744;DHT22;12052;53.478;10.182;2024-02-23T05:30:21;5.20;99.90
23744;DHT22;12052;53.478;10.182;2024-02-23T05:32:47;5.20;99.90
23744;DHT22;12052;53.478;10.182;2024-02-23T05:35:13;5.20;99.90
23744;DHT22;12052;53.478;10.182;2024-02-23T05:37:39;5.30;99.90
23744;DHT22;12052;53.478;10.182;2024-02-23T05:40:05;5.30;99.90
23744;DHT22;12052;53.478;10.182;2024-02-23T05:42:38;5.20;99.90
23744;DHT22;12052;53.478;10.182;2024-02-23T05:45:04;5.20;99.90
23744;DHT22;12052;53.478;10.182;2024-02-23T05:47:30;5.30;99.90
23744;DHT22;12052;53.478;10.182;2024-02-23T05:49:56;5.30;99.90
23744;DHT22;12052;53.478;10.182;2024-02-23T05:52:22;5.30;99.90
23744;DHT22;12052;53.478;10.182;2024-02-23T05:54:47;5.30;99.90
23744;DHT22;12052;53.478;10.182;2024-02-23T05:57:13;5.20;99.90
23744;DHT22;12052;53.478;10.182;2024-02-23T05:59:38;5.20;99.90
23744;DHT22;12052;53.478;10.182;2024-02-23T06:02:04;5.20;99.90
23744;DHT22;12052;53.478;10.182;2024-02-23T06:04:30;5.20;99.90
23744;DHT22;12052;53.478;10.182;2024-02-23T06:06:55;5.20;99.90
23744;DHT22;12052;53.478;10.182;2024-02-23T06:09:21;5.20;99.90
23744;DHT22;12052;53.478;10.182;2024-02-23T06:11:47;5.20;99.90
23744;DHT22;12052;53.478;10.182;2024-02-23T06:14:13;5.20;99.90
23744;DHT22;12052;53.478;10.182;2024-02-23T06:16:38;5.20;99.90
23744;DHT22;12052;53.478;10.182;2024-02-23T06:19:06;5.20;99.90
23744;DHT22;12052;53.478;10.182;2024-02-23T06:21:31;5.20;99.90
23744;DHT22;12052;53.478;10.182;2024-02-23T06:23:57;5.20;99.90
23744;DHT22;12052;53.478;10.182;2024-02-23T06:26:23;5.20;99.90
23744;DHT22;12052;53.478;10.182;2024-02-23T06:28:49;5.20;99.90
23744;DHT22;12052;53.478;10.182;2024-02-23T06:31:15;5.20;99.90
23744;DHT22;12052;53.478;10.182;2024-02-23T06:33:40;5.20;99.90
23744;DHT22;12052;53.478;10.182;2024-02-23T06:36:07;5.20;99.90
23744;DHT22;12052;53.478;10.182;2024-02-23T06:38:33;5.10;99.90
23744;DHT22;12052;53.478;10.182;2024-02-23T06:40:59;5.10;99.90
23744;DHT22;12052;53.478;10.182;2024-02-23T06:43:25;5.10;99.90
23744;DHT22;12052;53.478;10.182;2024-02-23T06:45:51;5.10;99.90
23744;DHT22;12052;53.478;10.182;2024-02-23T06:48:16;5.10;99.90
23744;DHT22;12052;53.478;10.182;2024-02-23T06:50:42;5.10;99.90
23744;DHT22;12052;53.478;10.182;2024-02-23T06:53:08;5.20;99.90
23744;DHT22;12052;53.478;10.182;2024-02-23T06:55:37;5.20;99.90
23744;DHT22;12052;53.478;10.182;2024-02-23T06:58:02;5.20;99.90
23744;DHT22;12052;53.478;10.182;2024-02-23T07:00:30;5.20;99.90
23744;DHT22;12052;53.478;10.182;2024-02-23T07:02:56;5.30;99.90
23744;DHT22;12052;53.478;10.182;2024-02-23T07:05:24;5.30;99.90
23744;DHT22;12052;53.478;10.182;2024-02-23T07:07:50;5.30;99.90
23744;DHT22;12052;53.478;10.182;2024-02-23T07:10:15;5.30;99.90
23744;DHT22;12052;53.478;10.182;2024-02-23T07:12:43;5.30;99.90
23744;DHT22;12052;53.478;10.182;2024-02-23T07:15:10;5.30;99.90
23744;DHT22;12052;53.478;10.182;2024-02-23T07:17:35;5.30;99.90
23744;DHT22;12052;53.478;10.182;2024-02-23T07:20:01;5.30;99.90
23744;DHT22;12052;53.478;10.182;2024-02-23T07:22:31;5.40;99.90
23744;DHT22;12052;53.478;10.182;2024-02-23T07:24:57;5.40;99.90
23744;DHT22;12052;53.478;10.182;2024-02-23T07:27:22;5.50;99.90
23744;DHT22;12052;53.478;10.182;2024-02-23T07:29:48;5.60;99.90
23744;DHT22;12052;53.478;10.182;2024-02-23T07:32:14;5.70;99.90
23744;DHT22;12052;53.478;10.182;2024-02-23T07:34:39;5.90;99.90
23744;DHT22;12052;53.478;10.182;2024-02-23T07:37:05;6.00;99.90
23744;DHT22;12052;53.478;10.182;2024-02-23T07:39:31;6.10;99.90
23744;DHT22;12052;53.478;10.182;2024-02-23T07:41:57;6.00;99.90
23744;DHT22;12052;53.478;10.182;2024-02-23T07:44:22;6.00;99.90
23744;DHT22;12052;53.478;10.182;2024-02-23T07:46:48;6.20;99.90
23744;DHT22;12052;53.478;10.182;2024-02-23T07:49:13;6.10;99.90
23744;DHT22;12052;53.478;10.182;2024-02-23T07:51:39;6.20;99.90
23744;DHT22;12052;53.478;10.182;2024-02-23T07:54:04;6.20;99.90
23744;DHT22;12052;53.478;10.182;2024-02-23T07:56:30;6.20;99.90
23744;DHT22;12052;53.478;10.182;2024-02-23T07:58:56;6.20;99.90
23744;DHT22;12052;53.478;10.182;2024-02-23T08:01:22;6.10;99.90
23744;DHT22;12052;53.478;10.182;2024-02-23T08:03:48;6.20;99.90
23744;DHT22;12052;53.478;10.182;2024-02-23T08:06:14;6.20;99.90
23744;DHT22;12052;53.478;10.182;2024-02-23T08:08:40;6.20;99.90
23744;DHT22;12052;53.478;10.182;2024-02-23T08:11:05;6.30;99.90
23744;DHT22;12052;53.478;10.182;2024-02-23T08:13:31;6.30;99.90
23744;DHT22;12052;53.478;10.182;2024-02-23T08:15:57;6.30;99.90
23744;DHT22;12052;53.478;10.182;2024-02-23T08:18:23;6.40;99.90
23744;DHT22;12052;53.478;10.182;2024-02-23T08:20:49;6.50;99.90
23744;DHT22;12052;53.478;10.182;2024-02-23T08:23:15;6.60;99.90
23744;DHT22;12052;53.478;10.182;2024-02-23T08:25:40;6.70;99.90
23744;DHT22;12052;53.478;10.182;2024-02-23T08:28:06;6.80;99.90
23744;DHT22;12052;53.478;10.182;2024-02-23T08:30:32;6.80;99.90
23744;DHT22;12052;53.478;10.182;2024-02-23T08:32:58;7.00;99.90
23744;DHT22;12052;53.478;10.182;2024-02-23T08:35:24;7.10;99.90
23744;DHT22;12052;53.478;10.182;2024-02-23T08:37:49;7.10;99.90
23744;DHT22;12052;53.478;10.182;2024-02-23T08:40:15;7.20;99.90
23744;DHT22;12052;53.478;10.182;2024-02-23T08:42:41;7.20;99.90
23744;DHT22;12052;53.478;10.182;2024-02-23T08:45:08;7.20;99.90
23744;DHT22;12052;53.478;10.182;2024-02-23T08:47:35;7.20;99.90
23744;DHT22;12052;53.478;10.182;2024-02-23T08:50:01;7.30;99.90
23744;DHT22;12052;53.478;10.182;2024-02-23T08:52:27;7.40;99.90
23744;DHT22;12052;53.478;10.182;2024-02-23T08:54:52;7.40;99.90
23744;DHT22;12052;53.478;10.182;2024-02-23T08:57:18;7.40;99.90
23744;DHT22;12052;53.478;10.182;2024-02-23T08:59:48;7.40;99.90
23744;DHT22;12052;53.478;10.182;2024-02-23T09:02:14;7.50;99.90
23744;DHT22;12052;53.478;10.182;2024-02-23T09:04:40;7.50;99.90
23744;DHT22;12052;53.478;10.182;2024-02-23T09:07:05;7.50;99.90
23744;DHT22;12052;53.478;10.182;2024-02-23T09:09:31;7.50;99.90
23744;DHT22;12052;53.478;10.182;2024-02-23T09:11:57;7.50;99.90
23744;DHT22;12052;53.478;10.182;2024-02-23T09:14:22;7.50;99.90
23744;DHT22;12052;53.478;10.182;2024-02-23T09:16:50;7.60;99.90
23744;DHT22;12052;53.478;10.182;2024-02-23T09:19:16;7.80;99.90
23744;DHT22;12052;53.478;10.182;2024-02-23T09:21:42;7.80;99.90
23744;DHT22;12052;53.478;10.182;2024-02-23T09:24:08;7.90;99.90
23744;DHT22;12052;53.478;10.182;2024-02-23T09:26:33;7.80;99.90
23744;DHT22;12052;53.478;10.182;2024-02-23T09:28:59;7.70;99.90
23744;DHT22;12052;53.478;10.182;2024-02-23T09:31:24;7.60;99.90
23744;DHT22;12052;53.478;10.182;2024-02-23T09:33:51;7.60;99.90
23744;DHT22;12052;53.478;10.182;2024-02-23T09:36:17;7.50;99.90
23744;DHT22;12052;53.478;10.182;2024-02-23T09:38:43;7.50;99.90
23744;DHT22;12052;53.478;10.182;2024-02-23T09:41:17;7.40;99.90
23744;DHT22;12052;53.478;10.182;2024-02-23T09:43:45;7.40;99.90
23744;DHT22;12052;53.478;10.182;2024-02-23T09:46:11;7.40;99.90
23744;DHT22;12052;53.478;10.182;2024-02-23T09:48:38;7.40;99.90
23744;DHT22;12052;53.478;10.182;2024-02-23T09:51:05;7.50;99.90
23744;DHT22;12052;53.478;10.182;2024-02-23T09:53:31;7.50;99.90
23744;DHT22;12052;53.478;10.182;2024-02-23T09:55:58;7.60;99.90
23744;DHT22;12052;53.478;10.182;2024-02-23T09:58:24;7.60;99.90
23744;DHT22;12052;53.478;10.182;2024-02-23T10:00:52;7.60;99.90
23744;DHT22;12052;53.478;10.182;2024-02-23T10:03:18;7.60;99.90
23744;DHT22;12052;53.478;10.182;2024-02-23T10:05:43;7.60;99.90
23744;DHT22;12052;53.478;10.182;2024-02-23T10:08:11;7.60;99.90
23744;DHT22;12052;53.478;10.182;2024-02-23T10:10:38;7.70;99.90
23744;DHT22;12052;53.478;10.182;2024-02-23T10:13:03;7.80;99.90
23744;DHT22;12052;53.478;10.182;2024-02-23T10:15:32;7.80;99.90
23744;DHT22;12052;53.478;10.182;2024-02-23T10:17:57;7.80;99.90
23744;DHT22;12052;53.478;10.182;2024-02-23T10:20:23;7.90;99.90
23744;DHT22;12052;53.478;10.182;2024-02-23T10:22:49;8.00;99.90
23744;DHT22;12052;53.478;10.182;2024-02-23T10:25:14;8.10;99.90
23744;DHT22;12052;53.478;10.182;2024-02-23T10:27:43;8.20;99.90
23744;DHT22;12052;53.478;10.182;2024-02-23T10:30:10;8.10;99.90
23744;DHT22;12052;53.478;10.182;2024-02-23T10:32:38;8.20;99.90
23744;DHT22;12052;53.478;10.182;2024-02-23T10:35:13;8.10;99.90
23744;DHT22;12052;53.478;10.182;2024-02-23T10:37:40;8.10;99.90
23744;DHT22;12052;53.478;10.182;2024-02-23T10:40:08;8.10;99.90
23744;DHT22;12052;53.478;10.182;2024-02-23T10:42:36;8.10;99.90
23744;DHT22;12052;53.478;10.182;2024-02-23T10:45:05;8.20;99.90
23744;DHT22;12052;53.478;10.182;2024-02-23T10:47:31;8.20;99.90
23744;DHT22;12052;53.478;10.182;2024-02-23T10:50:00;8.20;99.90
23744;DHT22;12052;53.478;10.182;2024-02-23T10:52:27;8.30;99.90
23744;DHT22;12052;53.478;10.182;2024-02-23T10:54:53;8.40;99.90
23744;DHT22;12052;53.478;10.182;2024-02-23T10:57:19;8.40;99.90
23744;DHT22;12052;53.478;10.182;2024-02-23T10:59:46;8.40;99.90
23744;DHT22;12052;53.478;10.182;2024-02-23T11:02:17;8.40;99.90
23744;DHT22;12052;53.478;10.182;2024-02-23T11:04:46;8.30;99.90
23744;DHT22;12052;53.478;10.182;2024-02-23T11:07:16;8.30;99.90
23744;DHT22;12052;53.478;10.182;2024-02-23T11:09:54;8.10;99.90
23744;DHT22;12052;53.478;10.182;2024-02-23T11:12:24;8.20;99.90
23744;DHT22;12052;53.478;10.182;2024-02-23T11:14:50;8.20;99.90
23744;DHT22;12052;53.478;10.182;2024-02-23T11:17:19;8.20;99.90
23744;DHT22;12052;53.478;10.182;2024-02-23T11:19:51;8.20;99.90
23744;DHT22;12052;53.478;10.182;2024-02-23T11:22:27;8.20;99.90
23744;DHT22;12052;53.478;10.182;2024-02-23T11:25:03;8.20;99.90
23744;DHT22;12052;53.478;10.182;2024-02-23T11:27:33;8.30;99.90
23744;DHT22;12052;53.478;10.182;2024-02-23T11:30:04;8.40;99.90
23744;DHT22;12052;53.478;10.182;2024-02-23T11:32:45;8.40;99.90
23744;DHT22;12052;53.478;10.182;2024-02-23T11:35:13;8.40;99.90
23744;DHT22;12052;53.478;10.182;2024-02-23T11:37:55;8.40;99.90
23744;DHT22;12052;53.478;10.182;2024-02-23T11:40:30;8.40;99.90
23744;DHT22;12052;53.478;10.182;2024-02-23T11:42:56;8.30;99.90
23744;DHT22;12052;53.478;10.182;2024-02-23T11:45:22;8.30;99.90
23744;DHT22;12052;53.478;10.182;2024-02-23T11:47:47;8.20;99.90
23744;DHT22;12052;53.478;10.182;2024-02-23T11:50:13;8.30;99.90
23744;DHT22;12052;53.478;10.182;2024-02-23T11:52:40;8.20;99.90
23744;DHT22;12052;53.478;10.182;2024-02-23T11:55:07;8.30;99.90
23744;DHT22;12052;53.478;10.182;2024-02-23T11:57:34;8.30;99.90
23744;DHT22;12052;53.478;10.182;2024-02-23T12:00:03;8.30;99.90
23744;DHT22;12052;53.478;10.182;2024-02-23T12:02:31;8.30;99.90
23744;DHT22;12052;53.478;10.182;2024-02-23T12:04:57;8.30;99.90
23744;DHT22;12052;53.478;10.182;2024-02-23T12:07:23;8.30;99.90
23744;DHT22;12052;53.478;10.182;2024-02-23T12:09:49;8.20;99.90
23744;DHT22;12052;53.478;10.182;2024-02-23T12:12:15;8.30;99.90
23744;DHT22;12052;53.478;10.182;2024-02-23T12:14:41;8.30;99.90
23744;DHT22;12052;53.478;10.182;2024-02-23T12:17:08;8.30;99.90
23744;DHT22;12052;53.478;10.182;2024-02-23T12:19:40;8.30;99.90
23744;DHT22;12052;53.478;10.182;2024-02-23T12:22:06;8.40;99.90
23744;DHT22;12052;53.478;10.182;2024-02-23T12:24:32;8.40;99.90
23744;DHT22;12052;53.478;10.182;2024-02-23T12:26:57;8.40;99.90
23744;DHT22;12052;53.478;10.182;2024-02-23T12:29:23;8.30;99.90
23744;DHT22;12052;53.478;10.182;2024-02-23T12:31:49;8.30;99.90
23744;DHT22;12052;53.478;10.182;2024-02-23T12:34:15;8.30;99.90
23744;DHT22;12052;53.478;10.182;2024-02-23T12:36:41;8.40;99.90
23744;DHT22;12052;53.478;10.182;2024-02-23T12:39:06;8.40;99.90
23744;DHT22;12052;53.478;10.182;2024-02-23T12:41:32;8.50;99.90
23744;DHT22;12052;53.478;10.182;2024-02-23T12:43:58;8.60;99.90
23744;DHT22;12052;53.478;10.182;2024-02-23T12:46:24;8.70;99.90
23744;DHT22;12052;53.478;10.182;2024-02-23T12:48:50;8.70;99.90
23744;DHT22;12052;53.478;10.182;2024-02-23T12:51:16;8.70;99.90
23744;DHT22;12052;53.478;10.182;2024-02-23T12:53:42;8.70;99.90
23744;DHT22;12052;53.478;10.182;2024-02-23T12:56:10;8.80;99.90
23744;DHT22;12052;53.478;10.182;2024-02-23T12:58:37;8.70;99.90
23744;DHT22;12052;53.478;10.182;2024-02-23T13:01:03;8.70;99.90
23744;DHT22;12052;53.478;10.182;2024-02-23T13:03:29;8.70;99.90
23744;DHT22;12052;53.478;10.182;2024-02-23T13:05:55;8.70;99.90
23744;DHT22;12052;53.478;10.182;2024-02-23T13:08:22;8.60;99.90
23744;DHT22;12052;53.478;10.182;2024-02-23T13:10:51;8.60;99.90
23744;DHT22;12052;53.478;10.182;2024-02-23T13:13:18;8.60;99.90
23744;DHT22;12052;53.478;10.182;2024-02-23T13:15:47;8.70;99.90
23744;DHT22;12052;53.478;10.182;2024-02-23T13:18:13;8.70;99.90
23744;DHT22;12052;53.478;10.182;2024-02-23T13:20:39;8.70;99.90
23744;DHT22;12052;53.478;10.182;2024-02-23T13:23:10;8.70;99.90
23744;DHT22;12052;53.478;10.182;2024-02-23T13:25:40;8.70;99.90
23744;DHT22;12052;53.478;10.182;2024-02-23T13:28:06;8.70;99.90
23744;DHT22;12052;53.478;10.182;2024-02-23T13:30:32;8.70;99.90
23744;DHT22;12052;53.478;10.182;2024-02-23T13:32:58;8.70;99.90
23744;DHT22;12052;53.478;10.182;2024-02-23T13:35:24;8.70;99.90
23744;DHT22;12052;53.478;10.182;2024-02-23T13:37:50;8.70;99.90
23744;DHT22;12052;53.478;10.182;2024-02-23T13:40:16;8.70;99.90
23744;DHT22;12052;53.478;10.182;2024-02-23T13:42:42;8.80;99.90
23744;DHT22;12052;53.478;10.182;2024-02-23T13:45:11;8.70;99.90
23744;DHT22;12052;53.478;10.182;2024-02-23T13:47:39;8.70;99.90
23744;DHT22;12052;53.478;10.182;2024-02-23T13:50:05;8.70;99.90
23744;DHT22;12052;53.478;10.182;2024-02-23T13:52:31;8.60;99.90
23744;DHT22;12052;53.478;10.182;2024-02-23T13:54:57;8.60;99.90
23744;DHT22;12052;53.478;10.182;2024-02-23T13:57:23;8.60;99.90
23744;DHT22;12052;53.478;10.182;2024-02-23T13:59:48;8.50;99.90
23744;DHT22;12052;53.478;10.182;2024-02-23T14:02:14;8.50;99.90
23744;DHT22;12052;53.478;10.182;2024-02-23T14:04:40;8.50;99.90
23744;DHT22;12052;53.478;10.182;2024-02-23T14:07:07;8.50;99.90
23744;DHT22;12052;53.478;10.182;2024-02-23T14:09:33;8.50;99.90
23744;DHT22;12052;53.478;10.182;2024-02-23T14:11:58;8.40;99.90
23744;DHT22;12052;53.478;10.182;2024-02-23T14:14:24;8.50;99.90
23744;DHT22;12052;53.478;10.182;2024-02-23T14:16:50;8.60;99.90
23744;DHT22;12052;53.478;10.182;2024-02-23T14:19:16;8.60;99.90
23744;DHT22;12052;53.478;10.182;2024-02-23T14:21:42;8.60;99.90
23744;DHT22;12052;53.478;10.182;2024-02-23T14:24:07;8.70;99.90
23744;DHT22;12052;53.478;10.182;2024-02-23T14:26:33;8.70;99.90
23744;DHT22;12052;53.478;10.182;2024-02-23T14:28:59;8.60;99.90
23744;DHT22;12052;53.478;10.182;2024-02-23T14:31:25;8.70;99.90
23744;DHT22;12052;53.478;10.182;2024-02-23T14:33:51;8.70;99.90
23744;DHT22;12052;53.478;10.182;2024-02-23T14:36:18;8.70;99.90
23744;DHT22;12052;53.478;10.182;2024-02-23T14:38:43;8.70;99.90
23744;DHT22;12052;53.478;10.182;2024-02-23T14:41:09;8.70;99.90
23744;DHT22;12052;53.478;10.182;2024-02-23T14:43:36;8.70;99.90
23744;DHT22;12052;53.478;10.182;2024-02-23T14:46:02;8.70;99.90
23744;DHT22;12052;53.478;10.182;2024-02-23T14:48:27;8.80;99.90
23744;DHT22;12052;53.478;10.182;2024-02-23T14:50:53;8.80;99.90
23744;DHT22;12052;53.478;10.182;2024-02-23T14:53:19;8.80;99.90
23744;DHT22;12052;53.478;10.182;2024-02-23T14:55:44;8.90;99.90
23744;DHT22;12052;53.478;10.182;2024-02-23T14:58:10;8.90;99.90
23744;DHT22;12052;53.478;10.182;2024-02-23T15:00:36;8.90;99.90
23744;DHT22;12052;53.478;10.182;2024-02-23T15:03:03;9.00;99.90
23744;DHT22;12052;53.478;10.182;2024-02-23T15:05:28;9.00;99.90
23744;DHT22;12052;53.478;10.182;2024-02-23T15:07:55;9.00;99.90
23744;DHT22;12052;53.478;10.182;2024-02-23T15:10:20;9.00;99.90
23744;DHT22;12052;53.478;10.182;2024-02-23T15:12:46;8.90;99.90
23744;DHT22;12052;53.478;10.182;2024-02-23T15:15:11;8.80;99.90
23744;DHT22;12052;53.478;10.182;2024-02-23T15:17:37;8.80;99.90
23744;DHT22;12052;53.478;10.182;2024-02-23T15:20:04;8.90;99.90
23744;DHT22;12052;53.478;10.182;2024-02-23T15:22:29;8.90;99.90
23744;DHT22;12052;53.478;10.182;2024-02-23T15:24:55;8.80;99.90